Time;durP1;ratioP1;P1;durP2;ratioP2;P2;SDS_P1;SDS_P2;PMS_P1;PMS_P2;Temp;Humidity;BMP_temperature;BMP_pressure;BME280_temperature;BME280_humidity;BME280_pressure;Samples;Min_cycle;Max_cycle;Signal;HPM_P1;HPM_P2
2023/10/06 00:01:56;;;;;;;16.58;6.70;;;13.90;99.90;;;;;;4866412;29;20049;-93
2023/10/06 00:04:47;;;;;;;14.45;6.25;;;13.40;99.90;;;;;;4863487;29;20101;-95
2023/10/06 00:07:14;;;;;;;15.70;6.05;;;13.60;99.90;;;;;;4862350;29;20052;-95
2023/10/06 00:09:55;;;;;;;14.60;6.30;;;13.60;99.90;;;;;;4878810;29;20041;-95
2023/10/06 00:12:39;;;;;;;17.00;6.57;;;13.50;99.90;;;;;;4868704;29;20104;-94
2023/10/06 00:15:09;;;;;;;16.63;6.57;;;13.60;99.90;;;;;;4879261;29;20073;-95
2023/10/06 00:17:50;;;;;;;15.57;7.00;;;13.60;99.90;;;;;;4879159;29;20561;-95
2023/10/06 00:20:35;;;;;;;13.93;6.70;;;13.50;99.90;;;;;;4883515;29;20049;-95
2023/10/06 00:26:26;;;;;;;15.63;7.53;;;14.90;99.90;;;;;;4879376;29;20048;-93
2023/10/06 00:28:51;;;;;;;14.85;7.25;;;13.70;99.90;;;;;;4862925;29;20144;-94
2023/10/06 00:31:17;;;;;;;15.90;7.50;;;13.70;99.90;;;;;;4863430;29;20088;-94
2023/10/06 00:33:44;;;;;;;16.55;7.70;;;14.20;99.90;;;;;;4879309;29;20089;-95
2023/10/06 00:36:28;;;;;;;16.45;7.68;;;14.70;99.90;;;;;;4863519;29;20052;-95
2023/10/06 00:39:17;;;;;;;15.40;8.30;;;14.50;99.90;;;;;;4876377;29;20048;-95
2023/10/06 00:42:06;;;;;;;15.98;8.30;;;14.90;99.90;;;;;;4863442;29;20045;-94
2023/10/06 00:44:32;;;;;;;18.15;8.75;;;13.70;99.90;;;;;;4863123;29;20061;-95
2023/10/06 00:47:05;;;;;;;15.55;7.78;;;13.60;99.90;;;;;;4884183;29;20105;-95
2023/10/06 00:49:33;;;;;;;15.60;8.10;;;13.70;99.90;;;;;;4883675;29;20059;-95
2023/10/06 00:52:12;;;;;;;18.27;8.15;;;13.70;99.90;;;;;;4883190;29;20095;-94
2023/10/06 00:54:43;;;;;;;16.55;7.97;;;13.70;99.90;;;;;;4870572;29;20053;-94
2023/10/06 00:57:19;;;;;;;18.55;8.35;;;14.80;99.90;;;;;;4889839;29;20032;-94
2023/10/06 00:59:45;;;;;;;17.58;8.63;;;14.80;99.90;;;;;;4890589;29;20122;-93
2023/10/06 01:05:57;;;;;;;15.65;8.90;;;13.60;99.90;;;;;;4883959;29;20056;-93
2023/10/06 01:08:23;;;;;;;16.58;8.13;;;13.50;99.90;;;;;;4882401;29;20076;-94
2023/10/06 01:10:51;;;;;;;17.83;8.45;;;13.90;99.90;;;;;;4882697;29;20422;-94
2023/10/06 01:13:18;;;;;;;15.38;7.47;;;13.50;99.90;;;;;;4866407;29;20056;-95
2023/10/06 01:15:49;;;;;;;16.67;8.40;;;13.50;99.90;;;;;;4866870;29;20131;-94
2023/10/06 01:18:20;;;;;;;17.85;8.45;;;13.50;99.90;;;;;;4866364;29;20053;-93
2023/10/06 01:20:48;;;;;;;16.98;8.20;;;13.50;99.90;;;;;;4882038;29;20056;-94
2023/10/06 01:23:26;;;;;;;15.25;8.20;;;13.40;99.90;;;;;;4866855;29;20057;-94
2023/10/06 01:25:55;;;;;;;19.50;7.97;;;13.40;99.90;;;;;;4882299;29;20139;-94
2023/10/06 01:28:23;;;;;;;19.48;8.32;;;13.60;99.90;;;;;;4896361;29;20053;-94
2023/10/06 01:31:14;;;;;;;18.58;7.93;;;13.60;99.90;;;;;;4868693;29;20140;-95
2023/10/06 01:33:56;;;;;;;14.80;8.35;;;13.40;99.90;;;;;;4881838;29;20063;-95
2023/10/06 01:36:24;;;;;;;18.23;8.02;;;13.40;99.90;;;;;;4928481;23;20046;-94
2023/10/06 01:38:50;;;;;;;17.40;7.15;;;13.40;99.90;;;;;;4893992;29;20060;-94
2023/10/06 01:41:16;;;;;;;16.42;7.95;;;13.40;99.90;;;;;;4907025;29;20044;-93
2023/10/06 01:43:42;;;;;;;15.57;7.40;;;13.40;99.90;;;;;;4901358;29;20103;-94
2023/10/06 01:46:12;;;;;;;17.08;7.70;;;13.80;99.90;;;;;;4900177;29;20080;-94
2023/10/06 01:48:38;;;;;;;17.67;7.70;;;13.30;99.90;;;;;;4904978;29;20049;-93
2023/10/06 01:51:08;;;;;;;21.60;7.43;;;13.30;99.90;;;;;;4984410;23;20096;-95
2023/10/06 01:53:35;;;;;;;16.45;7.25;;;13.30;99.90;;;;;;4902853;29;20060;-93
2023/10/06 01:56:06;;;;;;;18.55;8.00;;;13.30;99.90;;;;;;4919304;29;20087;-94
2023/10/06 01:58:32;;;;;;;15.55;6.95;;;13.30;99.90;;;;;;4902716;29;20047;-93
2023/10/06 02:00:58;;;;;;;17.45;7.22;;;13.60;99.90;;;;;;4903817;29;20040;-94
2023/10/06 02:03:36;;;;;;;14.73;6.68;;;13.40;99.90;;;;;;4906118;29;20050;-93
2023/10/06 02:06:17;;;;;;;15.68;7.22;;;13.40;99.90;;;;;;4905097;29;20122;-94
2023/10/06 02:08:43;;;;;;;14.20;6.25;;;13.60;99.90;;;;;;4904321;29;20107;-94
2023/10/06 02:11:09;;;;;;;19.33;7.20;;;14.30;99.90;;;;;;4918013;29;20036;-96
2023/10/06 02:13:50;;;;;;;16.08;6.82;;;13.40;99.90;;;;;;4917924;29;20048;-96
2023/10/06 02:16:27;;;;;;;;;;;;;;;;;;;;;
2023/10/06 02:19:10;;;;;;;16.33;6.50;;;13.40;99.90;;;;;;4902122;29;20058;-96
2023/10/06 02:21:42;;;;;;;17.05;6.70;;;13.40;99.90;;;;;;4917805;29;20048;-95
2023/10/06 02:24:08;;;;;;;17.67;7.45;;;13.50;99.90;;;;;;4918339;29;20044;-96
2023/10/06 02:26:55;;;;;;;18.67;7.22;;;13.40;99.90;;;;;;4902670;29;20072;-95
2023/10/06 02:29:24;;;;;;;15.88;7.30;;;13.40;99.90;;;;;;4918281;29;20092;-95
2023/10/06 02:32:06;;;;;;;16.42;6.65;;;13.40;99.90;;;;;;4902668;29;20040;-96
2023/10/06 02:34:35;;;;;;;19.92;7.13;;;13.80;99.90;;;;;;4902170;29;20139;-94
2023/10/06 02:37:06;;;;;;;16.33;7.05;;;14.40;99.90;;;;;;4917947;29;20135;-95
2023/10/06 02:39:44;;;;;;;16.55;7.15;;;13.40;99.90;;;;;;4902178;29;20071;-95
2023/10/06 02:42:19;;;;;;;14.75;7.10;;;13.90;99.90;;;;;;4903970;29;20392;-95
2023/10/06 02:44:57;;;;;;;18.42;7.78;;;13.40;99.90;;;;;;4902467;29;20401;-92
2023/10/06 02:47:27;;;;;;;15.75;7.03;;;13.40;99.90;;;;;;4901534;29;20107;-92
2023/10/06 02:49:59;;;;;;;17.80;7.18;;;13.40;99.90;;;;;;4902089;29;20071;-93
2023/10/06 02:52:46;;;;;;;15.10;7.22;;;13.40;99.90;;;;;;4903821;29;20072;-93
2023/10/06 02:55:12;;;;;;;17.08;6.43;;;13.40;99.90;;;;;;4901177;29;20100;-93
2023/10/06 02:57:59;;;;;;;15.48;7.40;;;14.20;99.90;;;;;;4920241;29;20044;-95
2023/10/06 03:03:03;;;;;;;16.08;7.07;;;13.30;99.90;;;;;;4921681;29;20059;-94
2023/10/06 03:05:32;;;;;;;15.88;7.53;;;13.80;99.90;;;;;;4903026;29;20040;-93
2023/10/06 03:08:00;;;;;;;16.67;7.15;;;13.40;99.90;;;;;;4903169;29;20044;-93
2023/10/06 03:10:30;;;;;;;15.10;6.88;;;13.30;99.90;;;;;;4935134;29;20040;-92
2023/10/06 03:12:57;;;;;;;17.23;6.80;;;13.30;99.90;;;;;;4918664;29;20047;-93
2023/10/06 03:15:33;;;;;;;18.05;7.03;;;13.80;99.90;;;;;;4917687;29;20036;-94
2023/10/06 03:17:59;;;;;;;18.55;7.00;;;14.20;99.90;;;;;;4924001;29;20559;-93
2023/10/06 03:26:03;;;;;;;15.00;6.43;;;13.20;99.90;;;;;;4932839;29;20056;-93
2023/10/06 03:28:43;;;;;;;12.70;5.50;;;14.20;99.90;;;;;;4916440;29;20460;-94
2023/10/06 03:33:45;;;;;;;20.27;7.20;;;13.10;99.90;;;;;;4933281;29;20123;-92
2023/10/06 03:36:15;;;;;;;16.15;7.18;;;13.10;99.90;;;;;;4916355;29;20052;-94
2023/10/06 03:38:56;;;;;;;15.90;6.68;;;13.40;99.90;;;;;;4916319;29;20052;-93
2023/10/06 03:41:32;;;;;;;14.68;6.40;;;13.00;99.90;;;;;;4916705;29;20151;-91
2023/10/06 03:44:03;;;;;;;17.60;6.68;;;13.00;99.90;;;;;;4916575;29;20516;-94
2023/10/06 03:46:36;;;;;;;15.15;6.45;;;13.30;99.90;;;;;;4916131;29;20044;-94
2023/10/06 03:49:03;;;;;;;14.02;6.55;;;12.90;99.90;;;;;;4916918;29;20056;-92
2023/10/06 03:51:29;;;;;;;18.05;6.70;;;12.90;99.90;;;;;;4915746;29;20051;-92
2023/10/06 03:53:56;;;;;;;16.55;6.38;;;12.90;99.90;;;;;;4916183;29;20059;-93
2023/10/06 03:56:22;;;;;;;14.88;6.60;;;13.90;99.90;;;;;;4916018;29;20052;-91
2023/10/06 03:58:48;;;;;;;18.02;6.20;;;12.90;99.90;;;;;;4916575;29;20044;-92
2023/10/06 04:01:26;;;;;;;15.48;6.72;;;13.40;99.90;;;;;;4934503;28;20079;-91
2023/10/06 04:03:53;;;;;;;18.00;6.57;;;13.80;99.90;;;;;;4924452;28;20052;-93
2023/10/06 04:06:19;;;;;;;20.02;6.72;;;14.10;99.90;;;;;;4924524;28;20043;-92
2023/10/06 04:08:46;;;;;;;15.40;6.85;;;13.60;99.90;;;;;;4912912;29;20087;-94
2023/10/06 04:11:14;;;;;;;19.63;6.93;;;13.00;99.90;;;;;;4901503;29;20044;-92
2023/10/06 04:13:40;;;;;;;16.60;7.45;;;12.90;99.90;;;;;;4900490;29;20047;-91
2023/10/06 04:16:06;;;;;;;25.48;11.15;;;13.30;99.90;;;;;;4901378;29;20059;-93
2023/10/06 04:18:35;;;;;;;22.80;10.25;;;13.40;99.90;;;;;;4902171;29;20044;-93
2023/10/06 04:21:03;;;;;;;17.50;7.55;;;12.90;99.90;;;;;;4904059;29;20063;-93
2023/10/06 04:23:31;;;;;;;14.65;6.15;;;13.10;99.90;;;;;;4903167;29;20052;-92
2023/10/06 04:26:22;;;;;;;17.58;6.85;;;13.70;99.90;;;;;;4903626;29;20028;-93
2023/10/06 04:29:08;;;;;;;15.70;7.32;;;14.10;99.90;;;;;;4906759;29;20118;-90
2023/10/06 04:31:34;;;;;;;16.30;7.32;;;12.80;99.90;;;;;;4910520;29;20504;-91
2023/10/06 04:34:13;;;;;;;15.70;6.68;;;12.80;99.90;;;;;;4901095;29;20060;-93
2023/10/06 04:36:40;;;;;;;14.85;6.32;;;13.10;99.90;;;;;;4902615;29;20080;-92
2023/10/06 04:39:20;;;;;;;18.52;7.22;;;12.80;99.90;;;;;;4903395;29;20048;-94
2023/10/06 04:42:02;;;;;;;16.23;7.40;;;13.40;99.90;;;;;;4900877;29;20051;-93
2023/10/06 04:44:48;;;;;;;14.23;5.72;;;12.90;99.90;;;;;;4903492;29;20059;-94
2023/10/06 04:47:15;;;;;;;18.25;5.88;;;13.40;99.90;;;;;;4901318;29;20114;-93
2023/10/06 04:49:56;;;;;;;14.88;5.53;;;13.60;99.90;;;;;;4901000;29;20104;-95
2023/10/06 04:52:22;;;;;;;15.45;6.07;;;14.00;99.90;;;;;;4900426;29;20567;-90
2023/10/06 04:55:11;;;;;;;13.48;6.00;;;13.90;99.90;;;;;;4901148;29;20135;-93
2023/10/06 04:57:52;;;;;;;13.90;5.85;;;12.70;99.90;;;;;;4901636;29;20056;-92
2023/10/06 05:00:33;;;;;;;16.13;5.68;;;12.80;99.90;;;;;;4900609;29;20107;-92
2023/10/06 05:02:59;;;;;;;16.33;6.15;;;12.60;99.90;;;;;;4902565;29;20392;-92
2023/10/06 05:05:26;;;;;;;13.20;5.80;;;12.60;99.90;;;;;;4900722;29;20059;-93
2023/10/06 05:08:02;;;;;;;15.25;5.68;;;12.60;99.90;;;;;;4915466;29;20451;-92
2023/10/06 05:10:30;;;;;;;14.38;6.18;;;12.60;99.90;;;;;;4899050;29;20056;-92
2023/10/06 05:13:05;;;;;;;14.27;5.60;;;13.20;99.90;;;;;;4899878;29;20103;-91
2023/10/06 05:15:31;;;;;;;16.02;6.35;;;12.50;99.90;;;;;;4898855;29;20049;-92
2023/10/06 05:18:15;;;;;;;16.27;6.60;;;12.90;99.90;;;;;;4899560;29;20048;-93
2023/10/06 05:20:59;;;;;;;17.50;6.47;;;12.60;99.90;;;;;;4899918;29;20051;-91
2023/10/06 05:23:26;;;;;;;;;;;13.30;99.90;;;;;;4899640;29;20071;-92
2023/10/06 05:26:10;;;;;;;16.42;5.75;;;13.60;99.90;;;;;;4898885;29;19971;-94
2023/10/06 05:28:52;;;;;;;17.63;5.40;;;12.60;99.90;;;;;;4899134;29;20056;-91
2023/10/06 05:31:45;;;;;;;16.92;6.22;;;12.90;99.90;;;;;;4899418;29;20048;-93
2023/10/06 05:34:17;;;;;;;17.65;6.53;;;12.50;99.90;;;;;;4869557;29;20060;-92
2023/10/06 05:37:00;;;;;;;13.82;6.10;;;12.50;99.90;;;;;;4900980;29;20076;-92
2023/10/06 05:39:28;;;;;;;17.83;7.07;;;12.60;99.90;;;;;;4898650;29;20044;-92
2023/10/06 05:41:54;;;;;;;15.98;6.32;;;13.20;99.90;;;;;;4900521;29;20496;-92
2023/10/06 05:44:21;;;;;;;16.45;6.65;;;12.50;99.90;;;;;;4901928;29;20067;-92
2023/10/06 05:47:03;;;;;;;18.38;6.93;;;12.60;99.90;;;;;;4901660;29;20051;-93
2023/10/06 05:49:32;;;;;;;17.75;6.05;;;12.60;99.90;;;;;;4902409;29;20052;-92
2023/10/06 05:51:59;;;;;;;14.77;6.43;;;11.90;99.90;;;;;;4914049;29;20136;-93
2023/10/06 05:54:26;;;;;;;20.10;6.72;;;12.60;99.90;;;;;;4879469;24;20072;-93
2023/10/06 05:56:53;;;;;;;15.70;5.90;;;12.60;99.90;;;;;;4899523;29;20064;-91
2023/10/06 05:59:22;;;;;;;15.23;6.05;;;12.60;99.90;;;;;;4885207;29;20048;-91
2023/10/06 06:02:00;;;;;;;18.67;7.50;;;12.60;99.90;;;;;;4904893;29;20098;-93
2023/10/06 06:04:34;;;;;;;17.02;6.35;;;13.90;99.90;;;;;;4885856;29;20099;-85
2023/10/06 06:07:02;;;;;;;14.52;5.57;;;12.70;99.90;;;;;;4882597;29;20045;-88
2023/10/06 06:09:30;;;;;;;15.68;6.30;;;13.60;99.90;;;;;;5237319;24;20057;-86
2023/10/06 06:12:00;;;;;;;15.02;5.95;;;12.80;99.90;;;;;;4864026;29;20136;-86
2023/10/06 06:14:26;;;;;;;18.58;6.57;;;12.80;99.90;;;;;;4864959;29;20049;-86
2023/10/06 06:16:52;;;;;;;12.73;5.72;;;13.90;99.90;;;;;;4864536;29;20064;-86
2023/10/06 06:19:18;;;;;;;17.17;6.03;;;13.10;99.90;;;;;;4863298;29;20041;-87
2023/10/06 06:21:45;;;;;;;17.10;5.70;;;12.90;99.90;;;;;;4863855;29;20048;-86
2023/10/06 06:24:11;;;;;;;16.75;5.93;;;12.90;99.90;;;;;;4863846;29;20063;-86
2023/10/06 06:26:37;;;;;;;14.52;5.88;;;12.90;99.90;;;;;;4863076;29;20077;-87
2023/10/06 06:29:08;;;;;;;14.95;6.03;;;13.00;99.90;;;;;;4863788;29;20055;-86
2023/10/06 06:31:34;;;;;;;16.10;5.40;;;13.70;99.90;;;;;;4863830;29;20557;-85
2023/10/06 06:34:04;;;;;;;15.73;6.03;;;13.00;99.90;;;;;;4862551;29;20053;-85
2023/10/06 06:36:33;;;;;;;13.45;5.18;;;13.10;99.90;;;;;;4863838;29;20105;-85
2023/10/06 06:38:58;;;;;;;14.60;5.50;;;13.20;99.90;;;;;;4863813;29;20041;-85
2023/10/06 06:41:34;;;;;;;17.83;5.75;;;13.20;99.90;;;;;;4862292;29;20045;-86
2023/10/06 06:44:01;;;;;;;14.80;5.28;;;13.20;99.90;;;;;;4863278;29;20045;-85
2023/10/06 06:46:27;;;;;;;11.73;4.88;;;13.30;99.90;;;;;;4863463;29;20049;-86
2023/10/06 06:48:53;;;;;;;16.20;5.47;;;14.40;99.90;;;;;;4862908;29;20181;-85
2023/10/06 06:51:20;;;;;;;14.40;5.85;;;13.30;99.90;;;;;;4863201;29;20079;-86
2023/10/06 06:53:47;;;;;;;13.40;5.35;;;13.40;99.90;;;;;;4863553;29;20470;-85
2023/10/06 06:56:13;;;;;;;12.38;5.07;;;14.00;99.90;;;;;;4861899;29;20041;-86
2023/10/06 06:58:39;;;;;;;15.45;5.43;;;13.40;99.90;;;;;;4863233;29;20110;-85
2023/10/06 07:01:07;;;;;;;14.73;5.05;;;13.70;99.90;;;;;;4862743;29;20136;-86
2023/10/06 07:03:32;;;;;;;15.15;5.05;;;13.50;99.90;;;;;;4864174;29;20064;-85
2023/10/06 07:05:59;;;;;;;16.83;5.68;;;14.50;99.90;;;;;;4888172;29;20045;-85
2023/10/06 07:08:25;;;;;;;14.07;5.63;;;13.60;99.90;;;;;;4867671;29;20072;-85
2023/10/06 07:10:53;;;;;;;15.30;5.20;;;13.60;99.90;;;;;;4863815;29;20560;-85
2023/10/06 07:13:22;;;;;;;14.10;4.90;;;14.60;99.90;;;;;;4868660;29;20068;-86
2023/10/06 07:15:49;;;;;;;13.70;4.60;;;13.70;99.90;;;;;;4881127;29;20490;-89
2023/10/06 07:18:15;;;;;;;13.43;4.95;;;14.60;99.90;;;;;;4876265;29;20049;-85
2023/10/06 07:20:40;;;;;;;13.18;4.72;;;13.80;99.90;;;;;;4862880;29;20383;-85
2023/10/06 07:23:06;;;;;;;16.60;5.63;;;13.80;99.90;;;;;;4861798;29;20104;-86
2023/10/06 07:25:32;;;;;;;15.32;5.50;;;14.20;99.90;;;;;;4861961;29;20037;-86
2023/10/06 07:27:59;;;;;;;18.95;4.97;;;13.90;99.90;;;;;;4865026;29;20080;-86
2023/10/06 07:30:34;;;;;;;12.30;5.18;;;13.90;99.90;;;;;;4880038;29;20051;-87
2023/10/06 07:33:00;;;;;;;11.68;4.70;;;13.90;99.90;;;;;;4881405;29;20415;-86
2023/10/06 07:35:43;;;;;;;13.52;4.97;;;14.20;99.90;;;;;;4881315;29;20446;-86
2023/10/06 07:38:13;;;;;;;12.27;4.95;;;13.90;99.90;;;;;;4881927;29;20049;-86
2023/10/06 07:40:39;;;;;;;13.85;5.05;;;15.10;99.90;;;;;;4870293;29;20520;-86
2023/10/06 07:43:12;;;;;;;13.90;4.95;;;14.00;99.90;;;;;;4865425;29;20408;-86
2023/10/06 07:46:07;;;;;;;14.93;5.22;;;13.90;99.90;;;;;;4882081;29;20071;-86
2023/10/06 07:49:04;;;;;;;12.20;4.82;;;13.50;99.90;;;;;;4881356;29;20052;-86
2023/10/06 07:51:33;;;;;;;13.10;5.15;;;14.00;99.90;;;;;;4868986;29;20060;-86
2023/10/06 07:54:11;;;;;;;23.10;6.07;;;14.60;99.90;;;;;;4880901;29;20056;-86
2023/10/06 07:56:58;;;;;;;14.68;5.82;;;14.00;99.90;;;;;;4862220;29;20060;-87
2023/10/06 07:59:42;;;;;;;16.00;5.85;;;14.60;99.90;;;;;;4862221;29;20485;-87
2023/10/06 08:02:13;;;;;;;13.15;5.03;;;13.80;99.90;;;;;;4861999;29;20117;-87
2023/10/06 08:05:00;;;;;;;14.70;5.35;;;14.10;99.90;;;;;;4862945;29;20076;-86
2023/10/06 08:07:27;;;;;;;13.25;5.25;;;14.20;99.90;;;;;;4861351;29;20074;-86
2023/10/06 08:09:57;;;;;;;13.77;5.47;;;14.50;99.90;;;;;;4862984;29;20421;-87
2023/10/06 08:12:43;;;;;;;13.07;4.65;;;14.30;99.90;;;;;;4860813;29;20061;-87
2023/10/06 08:15:10;;;;;;;14.27;5.68;;;14.40;99.90;;;;;;4866604;29;20393;-86
2023/10/06 08:17:55;;;;;;;12.13;5.57;;;14.50;99.90;;;;;;4864844;29;20132;-87
2023/10/06 08:20:35;;;;;;;14.52;5.65;;;14.60;99.90;;;;;;4882048;29;20169;-88
2023/10/06 08:23:00;;;;;;;14.45;5.90;;;14.60;99.90;;;;;;4868904;29;20057;-88
2023/10/06 08:25:26;;;;;;;15.45;5.78;;;14.80;99.90;;;;;;4875708;29;20050;-88
2023/10/06 08:27:52;;;;;;;13.75;5.35;;;15.30;99.90;;;;;;4862003;29;20060;-87
2023/10/06 08:30:26;;;;;;;12.90;5.15;;;14.70;99.90;;;;;;4879205;29;20045;-88
2023/10/06 08:32:55;;;;;;;16.55;5.68;;;14.70;99.90;;;;;;4895340;29;20053;-87
2023/10/06 08:35:21;;;;;;;13.98;5.90;;;14.70;99.90;;;;;;4880111;29;20540;-87
2023/10/06 08:37:58;;;;;;;14.68;6.10;;;14.60;99.90;;;;;;4897307;29;20401;-87
2023/10/06 08:40:24;;;;;;;13.75;5.80;;;14.70;99.90;;;;;;4879726;29;20112;-86
2023/10/06 08:42:52;;;;;;;16.23;7.03;;;14.70;99.90;;;;;;4880560;29;20421;-87
2023/10/06 08:45:22;;;;;;;17.02;6.53;;;14.70;99.90;;;;;;4879522;29;20061;-86
2023/10/06 08:47:53;;;;;;;13.07;6.03;;;15.20;99.90;;;;;;4879631;29;20081;-86
2023/10/06 08:50:24;;;;;;;15.45;6.22;;;14.60;99.90;;;;;;4879896;29;20393;-86
2023/10/06 08:52:51;;;;;;;18.73;6.15;;;15.20;99.90;;;;;;4878944;29;20102;-86
2023/10/06 08:55:21;;;;;;;14.27;7.18;;;14.80;99.90;;;;;;4893747;29;20053;-86
2023/10/06 08:57:51;;;;;;;15.73;6.13;;;14.80;99.90;;;;;;4880397;29;20072;-86
2023/10/06 09:00:25;;;;;;;15.65;5.93;;;15.00;99.90;;;;;;4879422;29;20036;-86
2023/10/06 09:02:53;;;;;;;12.75;5.40;;;15.70;99.90;;;;;;4881567;29;20050;-85
2023/10/06 09:05:19;;;;;;;14.73;6.80;;;14.90;99.90;;;;;;4870037;29;20084;-85
2023/10/06 09:07:57;;;;;;;18.20;6.00;;;15.00;99.90;;;;;;4856040;29;20073;-83
2023/10/06 09:10:23;;;;;;;14.40;6.35;;;14.80;99.90;;;;;;4854906;29;20141;-85
2023/10/06 09:13:11;;;;;;;16.17;6.22;;;14.90;99.90;;;;;;4854964;29;20135;-84
2023/10/06 09:15:39;;;;;;;15.50;5.97;;;15.00;99.90;;;;;;4853835;29;20041;-84
2023/10/06 09:18:19;;;;;;;13.10;6.85;;;15.10;99.90;;;;;;4857281;29;20041;-86
2023/10/06 09:20:54;;;;;;;14.98;6.40;;;15.10;99.90;;;;;;4896137;29;20049;-86
2023/10/06 09:23:34;;;;;;;16.25;6.70;;;15.20;99.90;;;;;;4864462;29;20044;-85
2023/10/06 09:26:00;;;;;;;14.45;6.93;;;15.20;99.90;;;;;;4864056;29;20063;-86
2023/10/06 09:28:27;;;;;;;16.92;6.90;;;15.40;99.90;;;;;;4863412;29;20495;-84
2023/10/06 09:30:57;;;;;;;16.50;5.90;;;15.20;99.90;;;;;;4880501;29;20439;-84
2023/10/06 09:33:49;;;;;;;15.27;6.43;;;15.30;99.90;;;;;;4895930;29;20477;-84
2023/10/06 09:36:21;;;;;;;16.40;6.32;;;15.40;99.90;;;;;;4861888;29;20144;-84
2023/10/06 09:38:47;;;;;;;15.15;5.88;;;15.70;99.90;;;;;;4895796;29;20088;-85
2023/10/06 09:41:28;;;;;;;12.90;5.50;;;15.60;99.90;;;;;;4864127;29;20397;-85
2023/10/06 09:43:57;;;;;;;14.05;5.70;;;15.70;99.90;;;;;;4888849;29;20053;-85
2023/10/06 09:46:25;;;;;;;15.45;5.95;;;15.80;99.90;;;;;;4864263;29;20045;-84
2023/10/06 09:48:52;;;;;;;13.73;5.53;;;16.00;99.90;;;;;;4864293;29;20045;-84
2023/10/06 09:51:23;;;;;;;14.23;5.40;;;16.10;99.90;;;;;;4863370;29;20076;-85
2023/10/06 09:53:50;;;;;;;13.18;5.32;;;16.10;99.90;;;;;;4864078;29;20084;-83
2023/10/06 09:56:17;;;;;;;14.82;5.80;;;16.20;99.90;;;;;;4863936;29;20088;-83
2023/10/06 09:58:48;;;;;;;17.50;6.03;;;16.30;99.90;;;;;;4863660;29;20052;-85
2023/10/06 10:01:28;;;;;;;13.20;5.60;;;16.50;99.90;;;;;;4863820;29;20090;-85
2023/10/06 10:04:01;;;;;;;13.55;5.80;;;16.50;99.90;;;;;;4861411;29;20451;-84
2023/10/06 10:06:27;;;;;;;11.05;4.97;;;16.50;99.90;;;;;;4878262;29;20048;-84
2023/10/06 10:08:54;;;;;;;18.65;6.22;;;16.60;99.90;;;;;;4868422;29;20045;-85
2023/10/06 10:11:29;;;;;;;12.20;4.85;;;16.60;99.90;;;;;;4855883;29;20059;-84
2023/10/06 10:14:11;;;;;;;11.13;4.72;;;16.70;99.90;;;;;;4854863;29;20558;-84
2023/10/06 10:16:48;;;;;;;12.48;4.97;;;16.80;99.90;;;;;;4858754;29;20120;-82
2023/10/06 10:19:18;;;;;;;14.80;5.70;;;16.80;99.90;;;;;;4851694;29;20053;-84
2023/10/06 10:21:45;;;;;;;12.43;4.97;;;16.80;99.90;;;;;;4858712;24;20049;-85
2023/10/06 10:24:14;;;;;;;12.02;5.13;;;16.90;99.90;;;;;;4871680;29;20053;-85
2023/10/06 10:26:41;;;;;;;13.63;4.55;;;17.20;99.90;;;;;;4882143;29;20416;-86
2023/10/06 10:29:12;;;;;;;14.23;4.68;;;17.10;99.90;;;;;;4882385;29;20057;-85
2023/10/06 10:31:38;;;;;;;12.10;4.82;;;17.30;99.90;;;;;;4882416;29;20045;-85
2023/10/06 10:34:07;;;;;;;12.20;4.57;;;17.40;99.90;;;;;;4882005;29;20052;-86
2023/10/06 10:36:33;;;;;;;12.02;4.70;;;18.20;99.90;;;;;;4883124;29;20049;-85
2023/10/06 10:39:13;;;;;;;14.30;3.97;;;18.00;99.90;;;;;;4882014;29;20064;-83
2023/10/06 10:41:40;;;;;;;12.07;4.22;;;18.30;99.90;;;;;;4882319;29;20488;-84
2023/10/06 10:44:07;;;;;;;13.88;4.30;;;18.30;99.90;;;;;;4882580;29;20059;-84
2023/10/06 10:46:41;;;;;;;13.07;4.18;;;18.80;99.90;;;;;;4881830;29;20044;-85
2023/10/06 10:49:08;;;;;;;;;;;18.80;99.90;;;;;;4882552;29;20416;-83
2023/10/06 10:51:55;;;;;;;10.63;4.07;;;18.80;99.90;;;;;;4882246;29;19974;-80
2023/10/06 10:54:22;;;;;;;13.68;4.30;;;18.90;99.90;;;;;;4897927;29;20056;-79
2023/10/06 11:00:14;;;;;;;11.27;3.67;;;19.10;99.90;;;;;;4864631;29;20048;-85
2023/10/06 11:02:42;;;;;;;11.93;4.13;;;18.90;99.90;;;;;;4881584;29;20052;-81
2023/10/06 11:05:11;;;;;;;12.77;4.10;;;18.70;99.90;;;;;;4897328;29;20048;-80
2023/10/06 11:07:37;;;;;;;11.65;4.15;;;18.80;99.90;;;;;;4896749;29;20059;-80
2023/10/06 11:10:03;;;;;;;12.23;4.30;;;19.10;99.90;;;;;;4897407;29;20053;-80
2023/10/06 11:12:30;;;;;;;13.02;4.22;;;19.00;99.90;;;;;;4896898;29;20135;-80
2023/10/06 11:15:13;;;;;;;12.00;4.13;;;19.00;99.90;;;;;;4880746;29;20052;-80
2023/10/06 11:17:41;;;;;;;11.23;3.90;;;19.00;99.90;;;;;;4898530;29;20052;-79
2023/10/06 11:20:13;;;;;;;12.52;3.95;;;19.00;99.90;;;;;;4898558;29;20419;-80
2023/10/06 11:22:41;;;;;;;13.27;4.07;;;18.90;99.90;;;;;;4896204;29;20054;-80
2023/10/06 11:25:10;;;;;;;12.60;4.07;;;19.00;99.90;;;;;;4896282;29;20057;-80
2023/10/06 11:27:38;;;;;;;12.93;4.13;;;18.80;99.90;;;;;;4881332;29;20087;-81
2023/10/06 11:30:08;;;;;;;11.15;3.80;;;18.70;99.90;;;;;;4895738;29;20063;-82
2023/10/06 11:32:34;;;;;;;13.77;4.20;;;18.60;99.90;;;;;;4896732;29;20048;-84
2023/10/06 11:35:00;;;;;;;12.07;4.10;;;18.60;99.90;;;;;;4880069;29;20040;-81
2023/10/06 11:37:29;;;;;;;10.93;3.90;;;18.60;99.90;;;;;;4880135;29;20048;-84
2023/10/06 11:39:57;;;;;;;12.35;4.07;;;18.50;99.90;;;;;;4880315;29;20527;-83
2023/10/06 11:42:26;;;;;;;14.25;5.00;;;18.60;99.90;;;;;;4880252;29;20075;-80
2023/10/06 11:45:06;;;;;;;12.73;4.53;;;18.50;99.90;;;;;;4881010;29;20056;-80
2023/10/06 11:47:34;;;;;;;13.38;4.47;;;18.30;99.90;;;;;;4880809;29;20453;-80
2023/10/06 11:50:05;;;;;;;13.60;4.28;;;18.20;99.90;;;;;;4880096;29;20103;-80
2023/10/06 11:52:31;;;;;;;13.40;4.15;;;18.30;99.90;;;;;;4880550;29;20063;-81
2023/10/06 11:54:58;;;;;;;13.60;4.18;;;18.30;99.90;;;;;;4881152;29;20044;-80
2023/10/06 11:57:45;;;;;;;12.77;4.13;;;18.20;99.90;;;;;;4880004;29;20108;-80
2023/10/06 12:00:17;;;;;;;14.30;4.00;;;18.20;99.90;;;;;;4880450;29;20052;-81
2023/10/06 12:02:49;;;;;;;14.07;4.65;;;18.20;99.90;;;;;;4897485;29;20488;-82
2023/10/06 12:05:18;;;;;;;11.77;3.97;;;18.20;99.90;;;;;;4895552;29;20067;-81
2023/10/06 12:07:47;;;;;;;11.35;3.90;;;18.10;99.90;;;;;;4896513;29;20059;-85
2023/10/06 12:10:17;;;;;;;11.65;3.90;;;18.20;99.90;;;;;;4872467;29;20104;-86
2023/10/06 12:12:46;;;;;;;14.77;4.45;;;18.20;99.90;;;;;;4880381;29;20083;-85
2023/10/06 12:15:14;;;;;;;11.70;4.50;;;18.30;99.90;;;;;;4882941;29;20045;-85
2023/10/06 12:17:45;;;;;;;10.40;3.67;;;18.10;99.90;;;;;;4896917;29;20048;-84
2023/10/06 12:20:18;;;;;;;10.57;4.35;;;18.20;99.90;;;;;;4879732;29;20052;-84
2023/10/06 12:22:45;;;;;;;15.77;4.20;;;18.20;99.90;;;;;;4877918;29;20057;-83
2023/10/06 12:25:12;;;;;;;14.05;4.20;;;18.30;99.90;;;;;;4894154;29;20116;-85
2023/10/06 12:27:43;;;;;;;10.50;4.10;;;18.20;99.90;;;;;;4895688;29;20473;-85
2023/10/06 12:30:19;;;;;;;14.23;4.95;;;18.60;99.90;;;;;;4895422;29;20072;-86
2023/10/06 12:32:51;;;;;;;9.98;3.33;;;18.50;99.90;;;;;;4879407;29;20041;-85
2023/10/06 12:35:18;;;;;;;10.30;3.40;;;18.50;99.90;;;;;;4870318;29;20147;-85
2023/10/06 12:37:47;;;;;;;11.50;3.90;;;18.80;99.90;;;;;;4895495;29;20045;-85
2023/10/06 12:40:15;;;;;;;14.13;4.45;;;19.10;99.90;;;;;;4892214;29;20464;-85
2023/10/06 12:42:45;;;;;;;13.00;3.88;;;19.20;99.90;;;;;;4898886;29;20551;-85
2023/10/06 12:45:20;;;;;;;12.48;4.28;;;19.30;99.90;;;;;;4899193;29;20044;-85
2023/10/06 12:47:49;;;;;;;10.45;3.72;;;19.20;99.90;;;;;;4898413;29;20040;-84
2023/10/06 12:50:21;;;;;;;12.63;4.22;;;19.20;99.90;;;;;;4898858;29;20409;-84
2023/10/06 12:52:58;;;;;;;10.27;3.58;;;19.00;99.90;;;;;;4882986;29;20131;-85
2023/10/06 12:55:41;;;;;;;14.60;4.53;;;19.20;99.90;;;;;;4882199;29;20569;-85
2023/10/06 12:58:14;;;;;;;11.73;4.05;;;19.30;99.90;;;;;;4883112;29;20060;-84
2023/10/06 13:00:53;;;;;;;12.30;4.25;;;19.40;99.90;;;;;;4896819;29;20453;-84
2023/10/06 13:03:33;;;;;;;12.63;5.00;;;19.50;99.90;;;;;;4897384;29;20063;-84
2023/10/06 13:06:02;;;;;;;14.20;4.28;;;19.50;99.90;;;;;;4897504;29;20400;-84
2023/10/06 13:08:28;;;;;;;12.32;3.90;;;19.60;99.90;;;;;;4889187;29;20064;-84
2023/10/06 13:10:57;;;;;;;10.82;3.92;;;19.50;99.90;;;;;;4902086;29;20055;-85
2023/10/06 13:13:23;;;;;;;11.93;4.05;;;19.40;99.90;;;;;;4901201;29;20048;-86
2023/10/06 13:15:52;;;;;;;13.98;4.03;;;19.30;99.90;;;;;;4886422;29;20095;-88
2023/10/06 13:18:28;;;;;;;13.73;4.05;;;19.50;99.90;;;;;;4884812;29;20079;-88
2023/10/06 13:20:54;;;;;;;10.93;4.20;;;19.50;99.90;;;;;;4898491;29;20087;-85
2023/10/06 13:23:27;;;;;;;11.30;3.90;;;19.30;99.90;;;;;;4896530;29;20048;-87